sensor_id;sensor_type;location;lat;lon;timestamp;temperature;humidity
14397;DHT22;50653;47.810;13.022;2023-01-23T00:01:24;-1.70;99.90
14397;DHT22;50653;47.810;13.022;2023-01-23T00:03:52;-1.80;99.90
14397;DHT22;50653;47.810;13.022;2023-01-23T00:06:18;-1.70;99.90
14397;DHT22;50653;47.810;13.022;2023-01-23T00:08:45;-1.50;99.90
14397;DHT22;50653;47.810;13.022;2023-01-23T00:11:14;-1.50;99.90
14397;DHT22;50653;47.810;13.022;2023-01-23T00:13:40;-1.60;99.90
14397;DHT22;50653;47.810;13.022;2023-01-23T00:16:06;-1.50;99.90
14397;DHT22;50653;47.810;13.022;2023-01-23T00:18:32;-1.60;99.90
14397;DHT22;50653;47.810;13.022;2023-01-23T00:21:03;-1.60;99.90
14397;DHT22;50653;47.810;13.022;2023-01-23T00:23:29;-1.50;99.90
14397;DHT22;50653;47.810;13.022;2023-01-23T00:25:54;-1.50;99.90
14397;DHT22;50653;47.810;13.022;2023-01-23T00:28:20;-1.50;99.90
14397;DHT22;50653;47.810;13.022;2023-01-23T00:30:45;-1.60;99.90
14397;DHT22;50653;47.810;13.022;2023-01-23T00:33:11;-1.60;99.90
14397;DHT22;50653;47.810;13.022;2023-01-23T00:35:37;-1.60;99.90
14397;DHT22;50653;47.810;13.022;2023-01-23T00:38:02;-1.70;99.90
14397;DHT22;50653;47.810;13.022;2023-01-23T00:40:28;-1.60;99.90
14397;DHT22;50653;47.810;13.022;2023-01-23T00:42:53;-1.50;99.90
14397;DHT22;50653;47.810;13.022;2023-01-23T00:45:19;-1.50;99.90
14397;DHT22;50653;47.810;13.022;2023-01-23T00:47:45;-1.70;99.90
14397;DHT22;50653;47.810;13.022;2023-01-23T00:50:11;-1.60;99.90
14397;DHT22;50653;47.810;13.022;2023-01-23T00:52:36;-1.50;99.90
14397;DHT22;50653;47.810;13.022;2023-01-23T00:55:04;-1.40;99.90
14397;DHT22;50653;47.810;13.022;2023-01-23T00:57:30;-1.50;99.90
14397;DHT22;50653;47.810;13.022;2023-01-23T00:59:55;-1.50;99.90
14397;DHT22;50653;47.810;13.022;2023-01-23T01:02:21;-1.60;99.90
14397;DHT22;50653;47.810;13.022;2023-01-23T01:04:46;-1.60;99.90
14397;DHT22;50653;47.810;13.022;2023-01-23T01:07:12;-1.50;99.90
14397;DHT22;50653;47.810;13.022;2023-01-23T01:09:38;-1.50;99.90
14397;DHT22;50653;47.810;13.022;2023-01-23T01:12:04;-1.40;99.90
14397;DHT22;50653;47.810;13.022;2023-01-23T01:14:30;-1.50;99.90
14397;DHT22;50653;47.810;13.022;2023-01-23T01:16:56;-1.60;99.90
14397;DHT22;50653;47.810;13.022;2023-01-23T01:19:23;-1.70;99.90
14397;DHT22;50653;47.810;13.022;2023-01-23T01:21:48;-1.70;99.90
14397;DHT22;50653;47.810;13.022;2023-01-23T01:24:14;-1.80;99.90
14397;DHT22;50653;47.810;13.022;2023-01-23T01:26:39;-1.70;99.90
14397;DHT22;50653;47.810;13.022;2023-01-23T01:29:05;-1.70;99.90
14397;DHT22;50653;47.810;13.022;2023-01-23T01:31:31;-1.60;99.90
14397;DHT22;50653;47.810;13.022;2023-01-23T01:33:56;-1.60;99.90
14397;DHT22;50653;47.810;13.022;2023-01-23T01:36:23;-1.70;99.90
14397;DHT22;50653;47.810;13.022;2023-01-23T01:38:49;-1.70;99.90
14397;DHT22;50653;47.810;13.022;2023-01-23T01:41:15;-1.70;99.90
14397;DHT22;50653;47.810;13.022;2023-01-23T01:43:41;-1.80;99.90
14397;DHT22;50653;47.810;13.022;2023-01-23T01:46:20;-1.80;99.90
14397;DHT22;50653;47.810;13.022;2023-01-23T01:49:03;-1.80;99.90
14397;DHT22;50653;47.810;13.022;2023-01-23T01:51:34;-1.80;99.90
14397;DHT22;50653;47.810;13.022;2023-01-23T01:54:08;-1.90;99.90
14397;DHT22;50653;47.810;13.022;2023-01-23T01:56:40;-2.10;99.90
14397;DHT22;50653;47.810;13.022;2023-01-23T01:59:10;-2.10;99.90
14397;DHT22;50653;47.810;13.022;2023-01-23T02:01:37;-2.20;99.90
14397;DHT22;50653;47.810;13.022;2023-01-23T02:04:06;-2.00;99.90
14397;DHT22;50653;47.810;13.022;2023-01-23T02:06:32;-2.00;99.90
14397;DHT22;50653;47.810;13.022;2023-01-23T02:09:24;-2.10;99.90
14397;DHT22;50653;47.810;13.022;2023-01-23T02:11:51;-2.10;99.90
14397;DHT22;50653;47.810;13.022;2023-01-23T02:14:18;-2.00;99.90
14397;DHT22;50653;47.810;13.022;2023-01-23T02:16:44;-1.90;99.90
14397;DHT22;50653;47.810;13.022;2023-01-23T02:25:18;-2.30;99.90
14397;DHT22;50653;47.810;13.022;2023-01-23T02:27:47;-2.20;99.90
14397;DHT22;50653;47.810;13.022;2023-01-23T02:30:13;-2.10;99.90
14397;DHT22;50653;47.810;13.022;2023-01-23T02:32:41;-2.10;99.90
14397;DHT22;50653;47.810;13.022;2023-01-23T02:35:19;-2.10;99.90
14397;DHT22;50653;47.810;13.022;2023-01-23T02:37:47;-2.10;99.90
14397;DHT22;50653;47.810;13.022;2023-01-23T02:40:14;-2.10;99.90
14397;DHT22;50653;47.810;13.022;2023-01-23T02:42:42;-2.10;99.90
14397;DHT22;50653;47.810;13.022;2023-01-23T02:45:11;-2.00;99.90
14397;DHT22;50653;47.810;13.022;2023-01-23T02:47:37;-2.00;99.90
14397;DHT22;50653;47.810;13.022;2023-01-23T02:50:03;-2.00;99.90
14397;DHT22;50653;47.810;13.022;2023-01-23T02:52:29;-2.00;99.90
14397;DHT22;50653;47.810;13.022;2023-01-23T02:54:56;-1.90;99.90
14397;DHT22;50653;47.810;13.022;2023-01-23T02:57:22;-2.00;99.90
14397;DHT22;50653;47.810;13.022;2023-01-23T02:59:48;-2.00;99.90
14397;DHT22;50653;47.810;13.022;2023-01-23T03:02:34;-2.10;99.90
14397;DHT22;50653;47.810;13.022;2023-01-23T03:05:00;-2.00;99.90
14397;DHT22;50653;47.810;13.022;2023-01-23T03:07:27;-1.90;99.90
14397;DHT22;50653;47.810;13.022;2023-01-23T03:09:52;-1.90;99.90
14397;DHT22;50653;47.810;13.022;2023-01-23T03:12:18;-1.90;99.90
14397;DHT22;50653;47.810;13.022;2023-01-23T03:14:44;-1.90;99.90
14397;DHT22;50653;47.810;13.022;2023-01-23T03:17:10;-1.80;99.90
14397;DHT22;50653;47.810;13.022;2023-01-23T03:19:36;-1.80;99.90
14397;DHT22;50653;47.810;13.022;2023-01-23T03:22:03;-1.80;99.90
14397;DHT22;50653;47.810;13.022;2023-01-23T03:24:33;-1.90;99.90
14397;DHT22;50653;47.810;13.022;2023-01-23T03:26:58;-1.90;99.90
14397;DHT22;50653;47.810;13.022;2023-01-23T03:29:26;-2.00;99.90
14397;DHT22;50653;47.810;13.022;2023-01-23T03:32:13;-1.90;99.90
14397;DHT22;50653;47.810;13.022;2023-01-23T03:34:40;-1.90;99.90
14397;DHT22;50653;47.810;13.022;2023-01-23T03:37:10;-1.90;99.90
14397;DHT22;50653;47.810;13.022;2023-01-23T03:39:38;-1.90;99.90
14397;DHT22;50653;47.810;13.022;2023-01-23T03:42:23;-1.90;99.90
14397;DHT22;50653;47.810;13.022;2023-01-23T03:44:51;-2.00;99.90
14397;DHT22;50653;47.810;13.022;2023-01-23T03:47:20;-1.90;99.90
14397;DHT22;50653;47.810;13.022;2023-01-23T03:49:46;-1.80;99.90
14397;DHT22;50653;47.810;13.022;2023-01-23T03:52:12;-1.90;99.90
14397;DHT22;50653;47.810;13.022;2023-01-23T03:54:37;-2.00;99.90
14397;DHT22;50653;47.810;13.022;2023-01-23T03:57:05;-2.00;99.90
14397;DHT22;50653;47.810;13.022;2023-01-23T03:59:46;-2.10;99.90
14397;DHT22;50653;47.810;13.022;2023-01-23T04:02:12;-2.00;99.90
14397;DHT22;50653;47.810;13.022;2023-01-23T04:04:38;-2.10;99.90
14397;DHT22;50653;47.810;13.022;2023-01-23T04:07:06;-2.10;99.90
14397;DHT22;50653;47.810;13.022;2023-01-23T04:09:35;-2.10;99.90
14397;DHT22;50653;47.810;13.022;2023-01-23T04:12:01;-2.10;99.90
14397;DHT22;50653;47.810;13.022;2023-01-23T04:14:28;-2.10;99.90
14397;DHT22;50653;47.810;13.022;2023-01-23T04:17:03;-2.00;99.90
14397;DHT22;50653;47.810;13.022;2023-01-23T04:19:29;-2.10;99.90
14397;DHT22;50653;47.810;13.022;2023-01-23T04:21:55;-2.10;99.90
14397;DHT22;50653;47.810;13.022;2023-01-23T04:24:21;-2.10;99.90
14397;DHT22;50653;47.810;13.022;2023-01-23T04:26:47;-2.10;99.90
14397;DHT22;50653;47.810;13.022;2023-01-23T04:29:13;-2.00;99.90
14397;DHT22;50653;47.810;13.022;2023-01-23T04:31:38;-1.90;99.90
14397;DHT22;50653;47.810;13.022;2023-01-23T04:34:04;-2.00;99.90
14397;DHT22;50653;47.810;13.022;2023-01-23T04:36:30;-1.90;99.90
14397;DHT22;50653;47.810;13.022;2023-01-23T04:38:56;-1.90;99.90
14397;DHT22;50653;47.810;13.022;2023-01-23T04:41:27;-1.90;99.90
14397;DHT22;50653;47.810;13.022;2023-01-23T04:44:01;-1.90;99.90
14397;DHT22;50653;47.810;13.022;2023-01-23T04:47:10;-1.90;99.90
14397;DHT22;50653;47.810;13.022;2023-01-23T04:49:36;-2.00;99.90
14397;DHT22;50653;47.810;13.022;2023-01-23T04:52:01;-1.90;99.90
14397;DHT22;50653;47.810;13.022;2023-01-23T04:54:29;-1.90;99.90
14397;DHT22;50653;47.810;13.022;2023-01-23T04:56:56;-1.90;99.90
14397;DHT22;50653;47.810;13.022;2023-01-23T04:59:22;-1.90;99.90
14397;DHT22;50653;47.810;13.022;2023-01-23T05:01:48;-2.00;99.90
14397;DHT22;50653;47.810;13.022;2023-01-23T05:04:15;-1.90;99.90
14397;DHT22;50653;47.810;13.022;2023-01-23T05:06:41;-1.90;99.90
14397;DHT22;50653;47.810;13.022;2023-01-23T05:09:07;-2.00;99.90
14397;DHT22;50653;47.810;13.022;2023-01-23T05:11:39;-1.90;99.90
14397;DHT22;50653;47.810;13.022;2023-01-23T05:14:07;-2.00;99.90
14397;DHT22;50653;47.810;13.022;2023-01-23T05:16:33;-2.00;99.90
14397;DHT22;50653;47.810;13.022;2023-01-23T05:19:13;-2.00;99.90
14397;DHT22;50653;47.810;13.022;2023-01-23T05:21:38;-1.90;99.90
14397;DHT22;50653;47.810;13.022;2023-01-23T05:24:07;-1.70;99.90
14397;DHT22;50653;47.810;13.022;2023-01-23T05:26:36;-1.80;99.90
14397;DHT22;50653;47.810;13.022;2023-01-23T05:29:02;-1.70;99.90
14397;DHT22;50653;47.810;13.022;2023-01-23T05:31:29;-1.80;99.90
14397;DHT22;50653;47.810;13.022;2023-01-23T05:34:23;-1.90;99.90
14397;DHT22;50653;47.810;13.022;2023-01-23T05:36:49;-1.90;99.90
14397;DHT22;50653;47.810;13.022;2023-01-23T05:39:16;-1.90;99.90
14397;DHT22;50653;47.810;13.022;2023-01-23T05:41:42;-2.00;99.90
14397;DHT22;50653;47.810;13.022;2023-01-23T05:44:28;-1.90;99.90
14397;DHT22;50653;47.810;13.022;2023-01-23T05:47:02;-1.90;99.90
14397;DHT22;50653;47.810;13.022;2023-01-23T05:49:28;-1.90;99.90
14397;DHT22;50653;47.810;13.022;2023-01-23T05:51:55;-2.00;99.90
14397;DHT22;50653;47.810;13.022;2023-01-23T05:54:22;-1.90;99.90
14397;DHT22;50653;47.810;13.022;2023-01-23T05:56:50;-2.00;99.90
14397;DHT22;50653;47.810;13.022;2023-01-23T05:59:53;-1.90;99.90
14397;DHT22;50653;47.810;13.022;2023-01-23T06:02:39;-2.10;99.90
14397;DHT22;50653;47.810;13.022;2023-01-23T06:05:23;-2.10;99.90
14397;DHT22;50653;47.810;13.022;2023-01-23T06:08:10;-2.00;99.90
14397;DHT22;50653;47.810;13.022;2023-01-23T06:10:36;-1.90;99.90
14397;DHT22;50653;47.810;13.022;2023-01-23T06:13:03;-1.80;99.90
14397;DHT22;50653;47.810;13.022;2023-01-23T06:15:28;-1.90;99.90
14397;DHT22;50653;47.810;13.022;2023-01-23T06:17:56;-1.80;99.90
14397;DHT22;50653;47.810;13.022;2023-01-23T06:20:23;-1.80;99.90
14397;DHT22;50653;47.810;13.022;2023-01-23T06:22:49;-1.70;99.90
14397;DHT22;50653;47.810;13.022;2023-01-23T06:25:14;-1.80;99.90
14397;DHT22;50653;47.810;13.022;2023-01-23T06:27:41;-1.80;99.90
14397;DHT22;50653;47.810;13.022;2023-01-23T06:30:08;-1.70;99.90
14397;DHT22;50653;47.810;13.022;2023-01-23T06:32:39;-1.80;99.90
14397;DHT22;50653;47.810;13.022;2023-01-23T06:35:07;-1.70;99.90
14397;DHT22;50653;47.810;13.022;2023-01-23T06:37:37;-1.70;99.90
14397;DHT22;50653;47.810;13.022;2023-01-23T06:40:04;-1.60;99.90
14397;DHT22;50653;47.810;13.022;2023-01-23T06:42:30;-1.70;99.90
14397;DHT22;50653;47.810;13.022;2023-01-23T06:44:57;-1.60;99.90
14397;DHT22;50653;47.810;13.022;2023-01-23T06:47:24;-1.70;99.90
14397;DHT22;50653;47.810;13.022;2023-01-23T06:49:59;-1.60;99.90
14397;DHT22;50653;47.810;13.022;2023-01-23T06:52:28;-1.60;99.90
14397;DHT22;50653;47.810;13.022;2023-01-23T06:54:54;-1.80;99.90
14397;DHT22;50653;47.810;13.022;2023-01-23T06:57:20;-1.80;99.90
14397;DHT22;50653;47.810;13.022;2023-01-23T06:59:47;-1.80;99.90
14397;DHT22;50653;47.810;13.022;2023-01-23T07:02:14;-1.80;99.90
14397;DHT22;50653;47.810;13.022;2023-01-23T07:04:46;-1.70;99.90
14397;DHT22;50653;47.810;13.022;2023-01-23T07:07:12;-1.80;99.90
14397;DHT22;50653;47.810;13.022;2023-01-23T07:09:38;-1.80;99.90
14397;DHT22;50653;47.810;13.022;2023-01-23T07:12:12;-1.80;99.90
14397;DHT22;50653;47.810;13.022;2023-01-23T07:14:38;-1.80;99.90
14397;DHT22;50653;47.810;13.022;2023-01-23T07:17:06;-1.80;99.90
14397;DHT22;50653;47.810;13.022;2023-01-23T07:19:31;-1.70;99.90
14397;DHT22;50653;47.810;13.022;2023-01-23T07:21:58;-1.80;99.90
14397;DHT22;50653;47.810;13.022;2023-01-23T07:24:25;-1.60;99.90
14397;DHT22;50653;47.810;13.022;2023-01-23T07:26:52;-1.60;99.90
14397;DHT22;50653;47.810;13.022;2023-01-23T07:29:18;-1.50;99.90
14397;DHT22;50653;47.810;13.022;2023-01-23T07:31:44;-1.60;99.90
14397;DHT22;50653;47.810;13.022;2023-01-23T07:34:09;-1.70;99.90
14397;DHT22;50653;47.810;13.022;2023-01-23T07:36:35;-1.70;99.90
14397;DHT22;50653;47.810;13.022;2023-01-23T07:39:00;-1.60;99.90
14397;DHT22;50653;47.810;13.022;2023-01-23T07:41:26;-1.60;99.90
14397;DHT22;50653;47.810;13.022;2023-01-23T07:43:52;-1.60;99.90
14397;DHT22;50653;47.810;13.022;2023-01-23T07:46:17;-1.80;99.90
14397;DHT22;50653;47.810;13.022;2023-01-23T07:48:43;-1.70;99.90
14397;DHT22;50653;47.810;13.022;2023-01-23T07:51:08;-1.70;99.90
14397;DHT22;50653;47.810;13.022;2023-01-23T07:53:34;-1.70;99.90
14397;DHT22;50653;47.810;13.022;2023-01-23T07:56:03;-1.80;99.90
14397;DHT22;50653;47.810;13.022;2023-01-23T07:58:29;-2.00;99.90
14397;DHT22;50653;47.810;13.022;2023-01-23T08:00:54;-1.80;99.90
14397;DHT22;50653;47.810;13.022;2023-01-23T08:03:20;-1.80;99.90
14397;DHT22;50653;47.810;13.022;2023-01-23T08:05:49;-1.80;99.90
14397;DHT22;50653;47.810;13.022;2023-01-23T08:08:15;-1.70;99.90
14397;DHT22;50653;47.810;13.022;2023-01-23T08:10:41;-1.80;99.90
14397;DHT22;50653;47.810;13.022;2023-01-23T08:13:07;-1.70;99.90
14397;DHT22;50653;47.810;13.022;2023-01-23T08:15:32;-1.70;99.90
14397;DHT22;50653;47.810;13.022;2023-01-23T08:17:58;-1.70;99.90
14397;DHT22;50653;47.810;13.022;2023-01-23T08:20:23;-1.60;99.90
14397;DHT22;50653;47.810;13.022;2023-01-23T08:22:49;-1.50;99.90
14397;DHT22;50653;47.810;13.022;2023-01-23T08:25:15;-1.60;99.90
14397;DHT22;50653;47.810;13.022;2023-01-23T08:27:40;-1.50;99.90
14397;DHT22;50653;47.810;13.022;2023-01-23T08:30:06;-1.40;99.90
14397;DHT22;50653;47.810;13.022;2023-01-23T08:32:34;-1.50;99.90
14397;DHT22;50653;47.810;13.022;2023-01-23T08:35:00;-1.50;99.90
14397;DHT22;50653;47.810;13.022;2023-01-23T08:37:27;-1.50;99.90
14397;DHT22;50653;47.810;13.022;2023-01-23T08:39:52;-1.50;99.90
14397;DHT22;50653;47.810;13.022;2023-01-23T08:42:18;-1.50;99.90
14397;DHT22;50653;47.810;13.022;2023-01-23T08:44:44;-1.50;99.90
14397;DHT22;50653;47.810;13.022;2023-01-23T08:47:09;-1.40;99.90
14397;DHT22;50653;47.810;13.022;2023-01-23T08:49:35;-1.40;99.90
14397;DHT22;50653;47.810;13.022;2023-01-23T08:52:01;-1.30;99.90
14397;DHT22;50653;47.810;13.022;2023-01-23T08:54:29;-1.20;99.90
14397;DHT22;50653;47.810;13.022;2023-01-23T08:56:55;-1.20;99.90
14397;DHT22;50653;47.810;13.022;2023-01-23T08:59:20;-1.30;99.90
14397;DHT22;50653;47.810;13.022;2023-01-23T09:01:46;-1.30;99.90
14397;DHT22;50653;47.810;13.022;2023-01-23T09:04:12;-1.30;99.90
14397;DHT22;50653;47.810;13.022;2023-01-23T09:06:38;-1.30;99.90
14397;DHT22;50653;47.810;13.022;2023-01-23T09:09:04;-1.30;99.90
14397;DHT22;50653;47.810;13.022;2023-01-23T09:11:30;-1.20;99.90
14397;DHT22;50653;47.810;13.022;2023-01-23T09:13:56;-1.20;99.90
14397;DHT22;50653;47.810;13.022;2023-01-23T09:16:21;-1.20;99.90
14397;DHT22;50653;47.810;13.022;2023-01-23T09:18:47;-1.20;99.90
14397;DHT22;50653;47.810;13.022;2023-01-23T09:21:15;-1.10;99.90
14397;DHT22;50653;47.810;13.022;2023-01-23T09:23:41;-1.10;99.90
14397;DHT22;50653;47.810;13.022;2023-01-23T09:26:09;-1.10;99.90
14397;DHT22;50653;47.810;13.022;2023-01-23T09:28:36;-1.10;99.90
14397;DHT22;50653;47.810;13.022;2023-01-23T09:31:08;-1.00;99.90
14397;DHT22;50653;47.810;13.022;2023-01-23T09:33:34;-0.90;99.90
14397;DHT22;50653;47.810;13.022;2023-01-23T09:36:00;-0.90;99.90
14397;DHT22;50653;47.810;13.022;2023-01-23T09:38:26;-0.90;99.90
14397;DHT22;50653;47.810;13.022;2023-01-23T09:40:56;-0.80;99.90
14397;DHT22;50653;47.810;13.022;2023-01-23T09:46:02;-0.70;99.90
14397;DHT22;50653;47.810;13.022;2023-01-23T09:48:38;-0.70;99.90
14397;DHT22;50653;47.810;13.022;2023-01-23T09:51:14;-0.60;99.90
14397;DHT22;50653;47.810;13.022;2023-01-23T09:53:41;-0.50;99.90
14397;DHT22;50653;47.810;13.022;2023-01-23T09:59:00;-0.60;99.90
14397;DHT22;50653;47.810;13.022;2023-01-23T10:01:28;-0.50;99.90
14397;DHT22;50653;47.810;13.022;2023-01-23T10:03:57;-0.50;99.90
14397;DHT22;50653;47.810;13.022;2023-01-23T10:06:25;-0.50;99.90
14397;DHT22;50653;47.810;13.022;2023-01-23T10:11:55;-0.30;99.90
14397;DHT22;50653;47.810;13.022;2023-01-23T10:17:25;-0.40;99.90
14397;DHT22;50653;47.810;13.022;2023-01-23T10:23:09;-0.40;99.90
14397;DHT22;50653;47.810;13.022;2023-01-23T10:25:39;-0.50;99.90
14397;DHT22;50653;47.810;13.022;2023-01-23T10:28:33;-0.60;99.90
14397;DHT22;50653;47.810;13.022;2023-01-23T10:31:29;-0.50;99.90
14397;DHT22;50653;47.810;13.022;2023-01-23T10:36:46;-0.40;99.90
14397;DHT22;50653;47.810;13.022;2023-01-23T10:39:20;-0.30;99.90
14397;DHT22;50653;47.810;13.022;2023-01-23T10:41:46;-0.20;99.90
14397;DHT22;50653;47.810;13.022;2023-01-23T10:44:16;-0.10;99.90
14397;DHT22;50653;47.810;13.022;2023-01-23T10:46:54;-0.30;99.90
14397;DHT22;50653;47.810;13.022;2023-01-23T10:49:28;-0.40;99.90
14397;DHT22;50653;47.810;13.022;2023-01-23T10:51:54;-0.50;99.90
14397;DHT22;50653;47.810;13.022;2023-01-23T10:54:21;-0.50;99.90
14397;DHT22;50653;47.810;13.022;2023-01-23T10:57:02;-0.50;99.90
14397;DHT22;50653;47.810;13.022;2023-01-23T10:59:34;-0.30;99.90
14397;DHT22;50653;47.810;13.022;2023-01-23T11:04:39;-0.30;99.90
14397;DHT22;50653;47.810;13.022;2023-01-23T11:07:20;-0.20;99.90
14397;DHT22;50653;47.810;13.022;2023-01-23T11:12:26;-0.10;99.90
14397;DHT22;50653;47.810;13.022;2023-01-23T11:15:22;-0.20;99.90
14397;DHT22;50653;47.810;13.022;2023-01-23T11:17:49;-0.20;99.90
14397;DHT22;50653;47.810;13.022;2023-01-23T11:20:26;-0.10;99.90
14397;DHT22;50653;47.810;13.022;2023-01-23T11:25:39;0.00;99.90
14397;DHT22;50653;47.810;13.022;2023-01-23T11:34:00;0.10;99.90
14397;DHT22;50653;47.810;13.022;2023-01-23T11:36:53;0.10;99.90
14397;DHT22;50653;47.810;13.022;2023-01-23T11:39:40;-0.10;99.90
14397;DHT22;50653;47.810;13.022;2023-01-23T11:42:11;0.00;99.90
14397;DHT22;50653;47.810;13.022;2023-01-23T11:44:38;0.10;99.90
14397;DHT22;50653;47.810;13.022;2023-01-23T11:49:57;0.10;99.90
14397;DHT22;50653;47.810;13.022;2023-01-23T11:55:26;0.00;99.90
14397;DHT22;50653;47.810;13.022;2023-01-23T12:03:29;0.20;99.90
14397;DHT22;50653;47.810;13.022;2023-01-23T12:06:08;0.20;99.90
14397;DHT22;50653;47.810;13.022;2023-01-23T12:08:44;0.10;99.90
14397;DHT22;50653;47.810;13.022;2023-01-23T12:11:16;0.10;99.90
14397;DHT22;50653;47.810;13.022;2023-01-23T12:25:39;-0.20;99.90
14397;DHT22;50653;47.810;13.022;2023-01-23T12:30:54;-0.50;99.90
14397;DHT22;50653;47.810;13.022;2023-01-23T12:36:12;-0.50;99.90
14397;DHT22;50653;47.810;13.022;2023-01-23T12:41:38;-0.20;99.90
14397;DHT22;50653;47.810;13.022;2023-01-23T12:44:23;-0.30;99.90
14397;DHT22;50653;47.810;13.022;2023-01-23T12:49:29;-0.30;99.90
14397;DHT22;50653;47.810;13.022;2023-01-23T12:52:22;-0.40;99.90
14397;DHT22;50653;47.810;13.022;2023-01-23T12:54:57;-0.50;99.90
14397;DHT22;50653;47.810;13.022;2023-01-23T12:57:28;-0.50;99.90
14397;DHT22;50653;47.810;13.022;2023-01-23T13:00:35;-0.30;99.90
14397;DHT22;50653;47.810;13.022;2023-01-23T13:03:13;-0.40;99.90
14397;DHT22;50653;47.810;13.022;2023-01-23T13:08:35;-0.10;99.90
14397;DHT22;50653;47.810;13.022;2023-01-23T13:11:14;-0.20;99.90
14397;DHT22;50653;47.810;13.022;2023-01-23T13:14:00;-0.20;99.90
14397;DHT22;50653;47.810;13.022;2023-01-23T13:16:30;-0.20;99.90
14397;DHT22;50653;47.810;13.022;2023-01-23T13:18:56;-0.20;99.90
14397;DHT22;50653;47.810;13.022;2023-01-23T13:24:38;-0.10;99.90
14397;DHT22;50653;47.810;13.022;2023-01-23T13:32:46;-0.30;99.90
14397;DHT22;50653;47.810;13.022;2023-01-23T13:43:51;-0.20;99.90
14397;DHT22;50653;47.810;13.022;2023-01-23T13:49:18;-0.10;99.90
14397;DHT22;50653;47.810;13.022;2023-01-23T13:52:09;0.00;99.90
14397;DHT22;50653;47.810;13.022;2023-01-23T13:54:57;-0.20;99.90
14397;DHT22;50653;47.810;13.022;2023-01-23T13:57:47;-0.20;99.90
14397;DHT22;50653;47.810;13.022;2023-01-23T14:00:17;-0.10;99.90
14397;DHT22;50653;47.810;13.022;2023-01-23T14:02:56;-0.20;99.90
14397;DHT22;50653;47.810;13.022;2023-01-23T14:05:40;0.00;99.90
14397;DHT22;50653;47.810;13.022;2023-01-23T14:08:16;0.00;99.90
14397;DHT22;50653;47.810;13.022;2023-01-23T14:10:45;0.10;99.90
14397;DHT22;50653;47.810;13.022;2023-01-23T14:13:15;0.20;99.90
14397;DHT22;50653;47.810;13.022;2023-01-23T14:15:50;0.20;99.90
14397;DHT22;50653;47.810;13.022;2023-01-23T14:18:55;0.20;99.90
14397;DHT22;50653;47.810;13.022;2023-01-23T14:21:25;0.20;99.90
14397;DHT22;50653;47.810;13.022;2023-01-23T14:23:56;0.10;99.90
14397;DHT22;50653;47.810;13.022;2023-01-23T14:26:27;0.10;99.90
14397;DHT22;50653;47.810;13.022;2023-01-23T14:29:01;0.20;99.90
14397;DHT22;50653;47.810;13.022;2023-01-23T14:31:29;0.00;99.90
14397;DHT22;50653;47.810;13.022;2023-01-23T14:34:03;0.10;99.90
14397;DHT22;50653;47.810;13.022;2023-01-23T14:36:32;0.10;99.90
14397;DHT22;50653;47.810;13.022;2023-01-23T14:39:00;0.10;99.90
14397;DHT22;50653;47.810;13.022;2023-01-23T14:41:32;-0.10;99.90
14397;DHT22;50653;47.810;13.022;2023-01-23T14:43:59;-0.20;99.90
14397;DHT22;50653;47.810;13.022;2023-01-23T14:46:38;-0.10;99.90
14397;DHT22;50653;47.810;13.022;2023-01-23T14:49:08;0.00;99.90
14397;DHT22;50653;47.810;13.022;2023-01-23T14:51:35;0.00;99.90
14397;DHT22;50653;47.810;13.022;2023-01-23T14:54:02;0.00;99.90
14397;DHT22;50653;47.810;13.022;2023-01-23T14:56:34;0.10;99.90
14397;DHT22;50653;47.810;13.022;2023-01-23T14:59:35;0.10;99.90
14397;DHT22;50653;47.810;13.022;2023-01-23T15:05:15;0.10;99.90
14397;DHT22;50653;47.810;13.022;2023-01-23T15:07:50;0.00;99.90
14397;DHT22;50653;47.810;13.022;2023-01-23T15:10:18;0.00;99.90
14397;DHT22;50653;47.810;13.022;2023-01-23T15:13:06;0.00;99.90
14397;DHT22;50653;47.810;13.022;2023-01-23T15:15:35;0.00;99.90
14397;DHT22;50653;47.810;13.022;2023-01-23T15:18:02;0.00;99.90
14397;DHT22;50653;47.810;13.022;2023-01-23T15:20:38;0.00;99.90
14397;DHT22;50653;47.810;13.022;2023-01-23T15:25:47;0.10;99.90
14397;DHT22;50653;47.810;13.022;2023-01-23T15:28:30;0.10;99.90
14397;DHT22;50653;47.810;13.022;2023-01-23T15:30:56;0.00;99.90
14397;DHT22;50653;47.810;13.022;2023-01-23T15:33:26;0.00;99.90
14397;DHT22;50653;47.810;13.022;2023-01-23T15:36:04;0.00;99.90
14397;DHT22;50653;47.810;13.022;2023-01-23T15:38:31;0.10;99.90
14397;DHT22;50653;47.810;13.022;2023-01-23T15:40:56;0.10;99.90
14397;DHT22;50653;47.810;13.022;2023-01-23T15:43:22;0.10;99.90
14397;DHT22;50653;47.810;13.022;2023-01-23T15:45:48;0.20;99.90
14397;DHT22;50653;47.810;13.022;2023-01-23T15:48:14;0.20;99.90
14397;DHT22;50653;47.810;13.022;2023-01-23T15:50:39;0.20;99.90
14397;DHT22;50653;47.810;13.022;2023-01-23T15:53:11;0.20;99.90
14397;DHT22;50653;47.810;13.022;2023-01-23T15:55:37;0.20;99.90
14397;DHT22;50653;47.810;13.022;2023-01-23T15:58:03;0.10;99.90
14397;DHT22;50653;47.810;13.022;2023-01-23T16:00:29;0.20;99.90
14397;DHT22;50653;47.810;13.022;2023-01-23T16:02:56;0.20;99.90
14397;DHT22;50653;47.810;13.022;2023-01-23T16:05:28;0.20;99.90
14397;DHT22;50653;47.810;13.022;2023-01-23T16:07:55;0.20;99.90
14397;DHT22;50653;47.810;13.022;2023-01-23T16:10:25;0.20;99.90
14397;DHT22;50653;47.810;13.022;2023-01-23T16:12:53;0.20;99.90
14397;DHT22;50653;47.810;13.022;2023-01-23T16:15:22;0.20;99.90
14397;DHT22;50653;47.810;13.022;2023-01-23T16:17:48;0.20;99.90
14397;DHT22;50653;47.810;13.022;2023-01-23T16:20:16;0.20;99.90
14397;DHT22;50653;47.810;13.022;2023-01-23T16:22:42;0.20;99.90
14397;DHT22;50653;47.810;13.022;2023-01-23T16:25:38;0.30;99.90
14397;DHT22;50653;47.810;13.022;2023-01-23T16:28:05;0.30;99.90
14397;DHT22;50653;47.810;13.022;2023-01-23T16:30:31;0.40;99.90
14397;DHT22;50653;47.810;13.022;2023-01-23T16:32:57;0.40;99.90
14397;DHT22;50653;47.810;13.022;2023-01-23T16:35:22;0.40;99.90
14397;DHT22;50653;47.810;13.022;2023-01-23T16:37:50;0.30;99.90
14397;DHT22;50653;47.810;13.022;2023-01-23T16:40:20;0.30;99.90
14397;DHT22;50653;47.810;13.022;2023-01-23T16:42:48;0.30;99.90
14397;DHT22;50653;47.810;13.022;2023-01-23T16:45:20;0.40;99.90
14397;DHT22;50653;47.810;13.022;2023-01-23T16:47:46;0.40;99.90
14397;DHT22;50653;47.810;13.022;2023-01-23T16:50:15;0.40;99.90
14397;DHT22;50653;47.810;13.022;2023-01-23T16:52:42;0.40;99.90
14397;DHT22;50653;47.810;13.022;2023-01-23T16:55:20;0.40;99.90
14397;DHT22;50653;47.810;13.022;2023-01-23T16:57:48;0.40;99.90
14397;DHT22;50653;47.810;13.022;2023-01-23T17:00:16;0.50;99.90
14397;DHT22;50653;47.810;13.022;2023-01-23T17:02:50;0.40;99.90
14397;DHT22;50653;47.810;13.022;2023-01-23T17:05:17;0.50;99.90
14397;DHT22;50653;47.810;13.022;2023-01-23T17:07:44;0.50;99.90
14397;DHT22;50653;47.810;13.022;2023-01-23T17:10:20;0.50;99.90
14397;DHT22;50653;47.810;13.022;2023-01-23T17:12:51;0.50;99.90
14397;DHT22;50653;47.810;13.022;2023-01-23T17:15:26;0.50;99.90
14397;DHT22;50653;47.810;13.022;2023-01-23T17:17:55;0.50;99.90